sensor_id;sensor_type;location;lat;lon;timestamp;temperature;humidity
11840;DHT22;5979;50.800;4.904;2023-02-21T00:01:27;8.30;99.90
11840;DHT22;5979;50.800;4.904;2023-02-21T00:04:11;8.30;99.90
11840;DHT22;5979;50.800;4.904;2023-02-21T00:06:56;8.30;99.90
11840;DHT22;5979;50.800;4.904;2023-02-21T00:09:39;8.20;99.90
11840;DHT22;5979;50.800;4.904;2023-02-21T00:12:24;8.20;99.90
11840;DHT22;5979;50.800;4.904;2023-02-21T00:15:09;8.20;99.90
11840;DHT22;5979;50.800;4.904;2023-02-21T00:17:53;8.20;99.90
11840;DHT22;5979;50.800;4.904;2023-02-21T00:20:37;8.20;99.90
11840;DHT22;5979;50.800;4.904;2023-02-21T00:23:21;8.20;99.90
11840;DHT22;5979;50.800;4.904;2023-02-21T00:26:05;8.20;99.90
11840;DHT22;5979;50.800;4.904;2023-02-21T00:28:50;8.20;99.90
11840;DHT22;5979;50.800;4.904;2023-02-21T00:31:34;8.20;99.90
11840;DHT22;5979;50.800;4.904;2023-02-21T00:34:18;8.20;99.90
11840;DHT22;5979;50.800;4.904;2023-02-21T00:37:02;8.20;99.90
11840;DHT22;5979;50.800;4.904;2023-02-21T00:39:46;8.20;99.90
11840;DHT22;5979;50.800;4.904;2023-02-21T00:42:30;8.10;99.90
11840;DHT22;5979;50.800;4.904;2023-02-21T00:45:14;8.10;99.90
11840;DHT22;5979;50.800;4.904;2023-02-21T00:47:58;8.10;99.90
11840;DHT22;5979;50.800;4.904;2023-02-21T00:50:42;8.10;99.90
11840;DHT22;5979;50.800;4.904;2023-02-21T00:53:26;8.10;99.90
11840;DHT22;5979;50.800;4.904;2023-02-21T00:56:10;8.10;99.90
11840;DHT22;5979;50.800;4.904;2023-02-21T00:58:54;8.10;99.90
11840;DHT22;5979;50.800;4.904;2023-02-21T01:01:38;8.10;99.90
11840;DHT22;5979;50.800;4.904;2023-02-21T01:04:23;8.00;99.90
11840;DHT22;5979;50.800;4.904;2023-02-21T01:07:07;8.10;99.90
11840;DHT22;5979;50.800;4.904;2023-02-21T01:09:51;8.10;99.90
11840;DHT22;5979;50.800;4.904;2023-02-21T01:12:35;8.10;99.90
11840;DHT22;5979;50.800;4.904;2023-02-21T01:15:19;8.10;99.90
11840;DHT22;5979;50.800;4.904;2023-02-21T01:18:03;8.10;99.90
11840;DHT22;5979;50.800;4.904;2023-02-21T01:20:47;8.00;99.90
11840;DHT22;5979;50.800;4.904;2023-02-21T01:23:31;8.00;99.90
11840;DHT22;5979;50.800;4.904;2023-02-21T01:26:15;8.00;99.90
11840;DHT22;5979;50.800;4.904;2023-02-21T01:29:00;8.00;99.90
11840;DHT22;5979;50.800;4.904;2023-02-21T01:31:44;8.00;99.90
11840;DHT22;5979;50.800;4.904;2023-02-21T01:34:28;8.00;99.90
11840;DHT22;5979;50.800;4.904;2023-02-21T01:37:12;8.00;99.90
11840;DHT22;5979;50.800;4.904;2023-02-21T01:39:56;8.00;99.90
11840;DHT22;5979;50.800;4.904;2023-02-21T01:42:40;8.00;99.90
11840;DHT22;5979;50.800;4.904;2023-02-21T01:45:44;8.00;99.90
11840;DHT22;5979;50.800;4.904;2023-02-21T01:48:30;8.00;99.90
11840;DHT22;5979;50.800;4.904;2023-02-21T01:51:19;8.10;99.90
11840;DHT22;5979;50.800;4.904;2023-02-21T01:54:05;8.10;99.90
11840;DHT22;5979;50.800;4.904;2023-02-21T01:56:50;8.00;99.90
11840;DHT22;5979;50.800;4.904;2023-02-21T01:59:35;8.00;99.90
11840;DHT22;5979;50.800;4.904;2023-02-21T02:02:34;8.00;99.90
11840;DHT22;5979;50.800;4.904;2023-02-21T02:05:20;8.00;99.90
11840;DHT22;5979;50.800;4.904;2023-02-21T02:08:04;8.00;99.90
11840;DHT22;5979;50.800;4.904;2023-02-21T02:10:54;8.00;99.90
11840;DHT22;5979;50.800;4.904;2023-02-21T02:13:52;8.00;99.90
11840;DHT22;5979;50.800;4.904;2023-02-21T02:16:29;8.00;99.90
11840;DHT22;5979;50.800;4.904;2023-02-21T02:35:54;8.00;99.90
11840;DHT22;5979;50.800;4.904;2023-02-21T02:38:33;8.00;99.90
11840;DHT22;5979;50.800;4.904;2023-02-21T02:41:18;8.00;99.90
11840;DHT22;5979;50.800;4.904;2023-02-21T02:43:51;8.00;99.90
11840;DHT22;5979;50.800;4.904;2023-02-21T02:46:26;8.00;99.90
11840;DHT22;5979;50.800;4.904;2023-02-21T02:48:58;8.00;99.90
11840;DHT22;5979;50.800;4.904;2023-02-21T02:51:25;8.00;99.90
11840;DHT22;5979;50.800;4.904;2023-02-21T02:53:51;8.00;99.90
11840;DHT22;5979;50.800;4.904;2023-02-21T02:56:17;8.00;99.90
11840;DHT22;5979;50.800;4.904;2023-02-21T02:58:55;7.90;99.90
11840;DHT22;5979;50.800;4.904;2023-02-21T03:09:48;7.90;99.90
11840;DHT22;5979;50.800;4.904;2023-02-21T03:15:07;7.90;99.90
11840;DHT22;5979;50.800;4.904;2023-02-21T03:17:40;8.00;99.90
11840;DHT22;5979;50.800;4.904;2023-02-21T03:20:09;7.90;99.90
11840;DHT22;5979;50.800;4.904;2023-02-21T03:22:35;8.00;99.90
11840;DHT22;5979;50.800;4.904;2023-02-21T03:25:03;8.00;99.90
11840;DHT22;5979;50.800;4.904;2023-02-21T03:27:30;8.00;99.90
11840;DHT22;5979;50.800;4.904;2023-02-21T03:29:59;8.00;99.90
11840;DHT22;5979;50.800;4.904;2023-02-21T03:32:30;8.00;99.90
11840;DHT22;5979;50.800;4.904;2023-02-21T03:34:57;8.00;99.90
11840;DHT22;5979;50.800;4.904;2023-02-21T03:40:00;7.90;99.90
11840;DHT22;5979;50.800;4.904;2023-02-21T03:42:26;7.90;99.90
11840;DHT22;5979;50.800;4.904;2023-02-21T03:44:52;7.90;99.90
11840;DHT22;5979;50.800;4.904;2023-02-21T03:47:18;7.90;99.90
11840;DHT22;5979;50.800;4.904;2023-02-21T03:49:43;7.90;99.90
11840;DHT22;5979;50.800;4.904;2023-02-21T03:52:11;7.90;99.90
11840;DHT22;5979;50.800;4.904;2023-02-21T03:54:40;7.90;99.90
11840;DHT22;5979;50.800;4.904;2023-02-21T03:57:06;7.90;99.90
11840;DHT22;5979;50.800;4.904;2023-02-21T03:59:32;7.90;99.90
11840;DHT22;5979;50.800;4.904;2023-02-21T04:01:58;7.90;99.90
11840;DHT22;5979;50.800;4.904;2023-02-21T04:04:23;7.90;99.90
11840;DHT22;5979;50.800;4.904;2023-02-21T04:06:49;7.80;99.90
11840;DHT22;5979;50.800;4.904;2023-02-21T04:09:15;7.90;99.90
11840;DHT22;5979;50.800;4.904;2023-02-21T04:11:45;7.90;99.90
11840;DHT22;5979;50.800;4.904;2023-02-21T04:14:11;7.80;99.90
11840;DHT22;5979;50.800;4.904;2023-02-21T04:16:37;7.80;99.90
11840;DHT22;5979;50.800;4.904;2023-02-21T04:19:03;7.80;99.90
11840;DHT22;5979;50.800;4.904;2023-02-21T04:21:29;7.80;99.90
11840;DHT22;5979;50.800;4.904;2023-02-21T04:23:55;7.80;99.90
11840;DHT22;5979;50.800;4.904;2023-02-21T04:26:21;7.80;99.90
11840;DHT22;5979;50.800;4.904;2023-02-21T04:28:49;7.70;99.90
11840;DHT22;5979;50.800;4.904;2023-02-21T04:31:16;7.70;99.90
11840;DHT22;5979;50.800;4.904;2023-02-21T04:33:42;7.70;99.90
11840;DHT22;5979;50.800;4.904;2023-02-21T04:36:08;7.70;99.90
11840;DHT22;5979;50.800;4.904;2023-02-21T04:38:33;7.70;99.90
11840;DHT22;5979;50.800;4.904;2023-02-21T04:40:59;7.70;99.90
11840;DHT22;5979;50.800;4.904;2023-02-21T04:43:25;7.70;99.90
11840;DHT22;5979;50.800;4.904;2023-02-21T04:45:51;7.70;99.90
11840;DHT22;5979;50.800;4.904;2023-02-21T04:48:17;7.70;99.90
11840;DHT22;5979;50.800;4.904;2023-02-21T04:50:42;7.70;99.90
11840;DHT22;5979;50.800;4.904;2023-02-21T04:53:08;7.70;99.90
11840;DHT22;5979;50.800;4.904;2023-02-21T04:55:34;7.70;99.90
11840;DHT22;5979;50.800;4.904;2023-02-21T04:58:00;7.70;99.90
11840;DHT22;5979;50.800;4.904;2023-02-21T05:00:26;7.80;99.90
11840;DHT22;5979;50.800;4.904;2023-02-21T05:02:52;7.80;99.90
11840;DHT22;5979;50.800;4.904;2023-02-21T05:05:18;7.70;99.90
11840;DHT22;5979;50.800;4.904;2023-02-21T05:07:43;7.70;99.90
11840;DHT22;5979;50.800;4.904;2023-02-21T05:10:09;7.70;99.90
11840;DHT22;5979;50.800;4.904;2023-02-21T05:12:37;7.70;99.90
11840;DHT22;5979;50.800;4.904;2023-02-21T05:15:04;7.70;99.90
11840;DHT22;5979;50.800;4.904;2023-02-21T05:17:30;7.70;99.90
11840;DHT22;5979;50.800;4.904;2023-02-21T05:19:56;7.80;99.90
11840;DHT22;5979;50.800;4.904;2023-02-21T05:22:22;7.70;99.90
11840;DHT22;5979;50.800;4.904;2023-02-21T05:24:48;7.70;99.90
11840;DHT22;5979;50.800;4.904;2023-02-21T05:27:19;7.70;99.90
11840;DHT22;5979;50.800;4.904;2023-02-21T05:29:49;7.70;99.90
11840;DHT22;5979;50.800;4.904;2023-02-21T05:32:16;7.70;99.90
11840;DHT22;5979;50.800;4.904;2023-02-21T05:34:42;7.70;99.90
11840;DHT22;5979;50.800;4.904;2023-02-21T05:37:13;7.70;99.90
11840;DHT22;5979;50.800;4.904;2023-02-21T05:39:38;7.70;99.90
11840;DHT22;5979;50.800;4.904;2023-02-21T05:42:04;7.70;99.90
11840;DHT22;5979;50.800;4.904;2023-02-21T05:44:30;7.70;99.90
11840;DHT22;5979;50.800;4.904;2023-02-21T05:46:55;7.70;99.90
11840;DHT22;5979;50.800;4.904;2023-02-21T05:49:21;7.70;99.90
11840;DHT22;5979;50.800;4.904;2023-02-21T05:51:47;7.70;99.90
11840;DHT22;5979;50.800;4.904;2023-02-21T05:54:16;7.70;99.90
11840;DHT22;5979;50.800;4.904;2023-02-21T05:56:45;7.70;99.90
11840;DHT22;5979;50.800;4.904;2023-02-21T05:59:11;7.80;99.90
11840;DHT22;5979;50.800;4.904;2023-02-21T06:01:37;7.70;99.90
11840;DHT22;5979;50.800;4.904;2023-02-21T06:04:03;7.80;99.90
11840;DHT22;5979;50.800;4.904;2023-02-21T06:06:29;7.70;99.90
11840;DHT22;5979;50.800;4.904;2023-02-21T06:08:55;7.70;99.90
11840;DHT22;5979;50.800;4.904;2023-02-21T06:11:24;7.70;99.90
11840;DHT22;5979;50.800;4.904;2023-02-21T06:13:52;7.70;99.90
11840;DHT22;5979;50.800;4.904;2023-02-21T06:16:17;7.70;99.90
11840;DHT22;5979;50.800;4.904;2023-02-21T06:18:43;7.70;99.90
11840;DHT22;5979;50.800;4.904;2023-02-21T06:21:09;7.70;99.90
11840;DHT22;5979;50.800;4.904;2023-02-21T06:23:34;7.70;99.90
11840;DHT22;5979;50.800;4.904;2023-02-21T06:26:00;7.70;99.90
11840;DHT22;5979;50.800;4.904;2023-02-21T06:28:29;7.70;99.90
11840;DHT22;5979;50.800;4.904;2023-02-21T06:30:55;7.70;99.90
11840;DHT22;5979;50.800;4.904;2023-02-21T06:33:22;7.70;99.90
11840;DHT22;5979;50.800;4.904;2023-02-21T06:35:48;7.70;99.90
11840;DHT22;5979;50.800;4.904;2023-02-21T06:38:13;7.70;99.90
11840;DHT22;5979;50.800;4.904;2023-02-21T06:40:39;7.70;99.90
11840;DHT22;5979;50.800;4.904;2023-02-21T06:43:05;7.70;99.90
11840;DHT22;5979;50.800;4.904;2023-02-21T06:45:31;7.70;99.90
11840;DHT22;5979;50.800;4.904;2023-02-21T06:47:56;7.70;99.90
11840;DHT22;5979;50.800;4.904;2023-02-21T06:50:22;7.70;99.90
11840;DHT22;5979;50.800;4.904;2023-02-21T06:52:48;7.70;99.90
11840;DHT22;5979;50.800;4.904;2023-02-21T06:55:19;7.70;99.90
11840;DHT22;5979;50.800;4.904;2023-02-21T06:57:45;7.70;99.90
11840;DHT22;5979;50.800;4.904;2023-02-21T07:00:11;7.70;99.90
11840;DHT22;5979;50.800;4.904;2023-02-21T07:02:37;7.70;99.90
11840;DHT22;5979;50.800;4.904;2023-02-21T07:05:04;7.70;99.90
11840;DHT22;5979;50.800;4.904;2023-02-21T07:07:30;7.70;99.90
11840;DHT22;5979;50.800;4.904;2023-02-21T07:09:55;7.80;99.90
11840;DHT22;5979;50.800;4.904;2023-02-21T07:12:21;7.80;99.90
11840;DHT22;5979;50.800;4.904;2023-02-21T07:14:47;7.70;99.90
11840;DHT22;5979;50.800;4.904;2023-02-21T07:17:13;7.80;99.90
11840;DHT22;5979;50.800;4.904;2023-02-21T07:19:39;7.80;99.90
11840;DHT22;5979;50.800;4.904;2023-02-21T07:22:06;7.70;99.90
11840;DHT22;5979;50.800;4.904;2023-02-21T07:24:32;7.70;99.90
11840;DHT22;5979;50.800;4.904;2023-02-21T07:26:58;7.70;99.90
11840;DHT22;5979;50.800;4.904;2023-02-21T07:29:24;7.80;99.90
11840;DHT22;5979;50.800;4.904;2023-02-21T07:31:50;7.80;99.90
11840;DHT22;5979;50.800;4.904;2023-02-21T07:34:15;7.80;99.90
11840;DHT22;5979;50.800;4.904;2023-02-21T07:36:42;7.80;99.90
11840;DHT22;5979;50.800;4.904;2023-02-21T07:39:07;7.80;99.90
11840;DHT22;5979;50.800;4.904;2023-02-21T07:41:33;7.90;99.90
11840;DHT22;5979;50.800;4.904;2023-02-21T07:43:59;7.90;99.90
11840;DHT22;5979;50.800;4.904;2023-02-21T07:46:26;7.90;99.90
11840;DHT22;5979;50.800;4.904;2023-02-21T07:48:52;7.90;99.90
11840;DHT22;5979;50.800;4.904;2023-02-21T07:51:18;7.90;99.90
11840;DHT22;5979;50.800;4.904;2023-02-21T07:53:44;7.90;99.90
11840;DHT22;5979;50.800;4.904;2023-02-21T07:56:10;7.90;99.90
11840;DHT22;5979;50.800;4.904;2023-02-21T07:58:36;7.90;99.90
11840;DHT22;5979;50.800;4.904;2023-02-21T08:01:03;7.90;99.90
11840;DHT22;5979;50.800;4.904;2023-02-21T08:03:29;8.00;99.90
11840;DHT22;5979;50.800;4.904;2023-02-21T08:05:55;8.00;99.90
11840;DHT22;5979;50.800;4.904;2023-02-21T08:08:21;8.00;99.90
11840;DHT22;5979;50.800;4.904;2023-02-21T08:10:48;8.00;99.90
11840;DHT22;5979;50.800;4.904;2023-02-21T08:13:13;8.00;99.90
11840;DHT22;5979;50.800;4.904;2023-02-21T08:15:39;8.00;99.90
11840;DHT22;5979;50.800;4.904;2023-02-21T08:18:05;8.00;99.90
11840;DHT22;5979;50.800;4.904;2023-02-21T08:20:31;8.00;99.90
11840;DHT22;5979;50.800;4.904;2023-02-21T08:22:57;8.00;99.90
11840;DHT22;5979;50.800;4.904;2023-02-21T08:25:22;8.00;99.90
11840;DHT22;5979;50.800;4.904;2023-02-21T08:27:48;8.00;99.90
11840;DHT22;5979;50.800;4.904;2023-02-21T08:30:18;8.00;99.90
11840;DHT22;5979;50.800;4.904;2023-02-21T08:32:44;8.00;99.90
11840;DHT22;5979;50.800;4.904;2023-02-21T08:35:16;8.10;99.90
11840;DHT22;5979;50.800;4.904;2023-02-21T08:37:49;8.10;99.90
11840;DHT22;5979;50.800;4.904;2023-02-21T08:40:18;8.20;99.90
11840;DHT22;5979;50.800;4.904;2023-02-21T08:42:51;8.20;99.90
11840;DHT22;5979;50.800;4.904;2023-02-21T08:45:19;8.20;99.90
11840;DHT22;5979;50.800;4.904;2023-02-21T08:47:45;8.30;99.90
11840;DHT22;5979;50.800;4.904;2023-02-21T08:50:11;8.30;99.90
11840;DHT22;5979;50.800;4.904;2023-02-21T08:52:37;8.40;99.90
11840;DHT22;5979;50.800;4.904;2023-02-21T08:55:04;8.40;99.90
11840;DHT22;5979;50.800;4.904;2023-02-21T08:57:30;8.40;99.90
11840;DHT22;5979;50.800;4.904;2023-02-21T08:59:56;8.40;99.90
11840;DHT22;5979;50.800;4.904;2023-02-21T09:02:23;8.30;99.90
11840;DHT22;5979;50.800;4.904;2023-02-21T09:04:50;8.40;99.90
11840;DHT22;5979;50.800;4.904;2023-02-21T09:07:18;8.50;99.90
11840;DHT22;5979;50.800;4.904;2023-02-21T09:09:45;8.50;99.90
11840;DHT22;5979;50.800;4.904;2023-02-21T09:12:11;8.60;99.90
11840;DHT22;5979;50.800;4.904;2023-02-21T09:14:39;8.60;99.90
11840;DHT22;5979;50.800;4.904;2023-02-21T09:17:07;8.60;99.90
11840;DHT22;5979;50.800;4.904;2023-02-21T09:19:33;8.60;99.90
11840;DHT22;5979;50.800;4.904;2023-02-21T09:21:59;8.60;99.90
11840;DHT22;5979;50.800;4.904;2023-02-21T09:24:26;8.70;99.90
11840;DHT22;5979;50.800;4.904;2023-02-21T09:26:53;8.70;99.90
11840;DHT22;5979;50.800;4.904;2023-02-21T09:29:20;8.70;99.90
11840;DHT22;5979;50.800;4.904;2023-02-21T09:31:47;8.60;99.90
11840;DHT22;5979;50.800;4.904;2023-02-21T09:34:13;8.60;99.90
11840;DHT22;5979;50.800;4.904;2023-02-21T09:36:39;8.70;99.90
11840;DHT22;5979;50.800;4.904;2023-02-21T09:39:05;8.70;99.90
11840;DHT22;5979;50.800;4.904;2023-02-21T09:41:32;8.70;99.90
11840;DHT22;5979;50.800;4.904;2023-02-21T09:43:59;8.80;99.90
11840;DHT22;5979;50.800;4.904;2023-02-21T09:46:44;8.80;99.90
11840;DHT22;5979;50.800;4.904;2023-02-21T09:51:50;9.00;99.90
11840;DHT22;5979;50.800;4.904;2023-02-21T09:54:38;9.00;99.90
11840;DHT22;5979;50.800;4.904;2023-02-21T09:57:09;9.00;99.90
11840;DHT22;5979;50.800;4.904;2023-02-21T09:59:36;9.00;99.90
11840;DHT22;5979;50.800;4.904;2023-02-21T10:02:10;9.00;99.90
11840;DHT22;5979;50.800;4.904;2023-02-21T10:05:33;8.90;99.90
11840;DHT22;5979;50.800;4.904;2023-02-21T10:14:05;8.80;99.90
11840;DHT22;5979;50.800;4.904;2023-02-21T10:16:55;8.80;99.90
11840;DHT22;5979;50.800;4.904;2023-02-21T10:19:32;8.80;99.90
11840;DHT22;5979;50.800;4.904;2023-02-21T10:22:08;8.80;99.90
11840;DHT22;5979;50.800;4.904;2023-02-21T10:24:36;8.80;99.90
11840;DHT22;5979;50.800;4.904;2023-02-21T10:27:06;8.80;99.90
11840;DHT22;5979;50.800;4.904;2023-02-21T10:32:07;8.80;99.90
11840;DHT22;5979;50.800;4.904;2023-02-21T10:34:34;8.80;99.90
11840;DHT22;5979;50.800;4.904;2023-02-21T10:42:48;8.80;99.90
11840;DHT22;5979;50.800;4.904;2023-02-21T10:45:19;8.90;99.90
11840;DHT22;5979;50.800;4.904;2023-02-21T10:47:57;8.90;99.90
11840;DHT22;5979;50.800;4.904;2023-02-21T10:51:27;8.90;99.90
11840;DHT22;5979;50.800;4.904;2023-02-21T10:53:26;8.90;99.90
11840;DHT22;5979;50.800;4.904;2023-02-21T10:58:49;8.90;99.90
11840;DHT22;5979;50.800;4.904;2023-02-21T11:01:19;8.80;99.90
11840;DHT22;5979;50.800;4.904;2023-02-21T11:04:00;8.80;99.90
11840;DHT22;5979;50.800;4.904;2023-02-21T11:08:56;8.80;99.90
11840;DHT22;5979;50.800;4.904;2023-02-21T11:11:33;8.80;99.90
11840;DHT22;5979;50.800;4.904;2023-02-21T11:14:21;8.80;99.90
11840;DHT22;5979;50.800;4.904;2023-02-21T11:17:12;8.80;99.90
11840;DHT22;5979;50.800;4.904;2023-02-21T11:22:24;8.90;99.90
11840;DHT22;5979;50.800;4.904;2023-02-21T11:27:34;9.10;99.90
11840;DHT22;5979;50.800;4.904;2023-02-21T11:30:03;9.10;99.90
11840;DHT22;5979;50.800;4.904;2023-02-21T11:32:39;9.20;99.90
11840;DHT22;5979;50.800;4.904;2023-02-21T11:35:14;9.20;99.90
11840;DHT22;5979;50.800;4.904;2023-02-21T11:43:25;9.30;99.90
11840;DHT22;5979;50.800;4.904;2023-02-21T11:46:17;9.30;99.90
11840;DHT22;5979;50.800;4.904;2023-02-21T11:51:57;9.20;99.90
11840;DHT22;5979;50.800;4.904;2023-02-21T11:54:27;9.10;99.90
11840;DHT22;5979;50.800;4.904;2023-02-21T12:17:04;9.30;99.90
11840;DHT22;5979;50.800;4.904;2023-02-21T12:28:27;9.50;99.90
11840;DHT22;5979;50.800;4.904;2023-02-21T12:45:01;9.90;99.90
11840;DHT22;5979;50.800;4.904;2023-02-21T12:48:35;10.00;99.90
11840;DHT22;5979;50.800;4.904;2023-02-21T12:50:41;10.00;99.90
11840;DHT22;5979;50.800;4.904;2023-02-21T12:53:20;10.10;99.90
11840;DHT22;5979;50.800;4.904;2023-02-21T12:56:07;10.10;99.90
11840;DHT22;5979;50.800;4.904;2023-02-21T12:58:40;10.10;99.90
11840;DHT22;5979;50.800;4.904;2023-02-21T13:01:39;10.20;99.90
11840;DHT22;5979;50.800;4.904;2023-02-21T13:04:27;10.20;99.90
11840;DHT22;5979;50.800;4.904;2023-02-21T13:07:02;10.10;99.90
11840;DHT22;5979;50.800;4.904;2023-02-21T13:09:49;10.20;99.90
11840;DHT22;5979;50.800;4.904;2023-02-21T13:12:25;10.20;99.90
11840;DHT22;5979;50.800;4.904;2023-02-21T13:15:34;10.30;99.90
11840;DHT22;5979;50.800;4.904;2023-02-21T13:18:25;10.30;99.90
11840;DHT22;5979;50.800;4.904;2023-02-21T13:23:49;10.40;99.90
11840;DHT22;5979;50.800;4.904;2023-02-21T13:29:22;10.30;99.90
11840;DHT22;5979;50.800;4.904;2023-02-21T13:32:09;10.40;99.90
11840;DHT22;5979;50.800;4.904;2023-02-21T13:34:42;10.40;99.90
11840;DHT22;5979;50.800;4.904;2023-02-21T13:37:23;10.50;99.90
11840;DHT22;5979;50.800;4.904;2023-02-21T13:39:53;10.50;99.90
11840;DHT22;5979;50.800;4.904;2023-02-21T13:42:22;10.50;99.90
11840;DHT22;5979;50.800;4.904;2023-02-21T13:45:04;10.60;99.90
11840;DHT22;5979;50.800;4.904;2023-02-21T13:50:50;10.80;99.90
11840;DHT22;5979;50.800;4.904;2023-02-21T13:53:26;11.00;99.90
11840;DHT22;5979;50.800;4.904;2023-02-21T13:58:39;11.00;99.90
11840;DHT22;5979;50.800;4.904;2023-02-21T14:01:17;11.10;99.90
11840;DHT22;5979;50.800;4.904;2023-02-21T14:03:43;11.20;99.90
11840;DHT22;5979;50.800;4.904;2023-02-21T14:08:41;11.20;99.90
11840;DHT22;5979;50.800;4.904;2023-02-21T14:16:34;11.30;99.90
11840;DHT22;5979;50.800;4.904;2023-02-21T14:19:09;11.40;99.90
11840;DHT22;5979;50.800;4.904;2023-02-21T14:21:46;11.40;99.90
11840;DHT22;5979;50.800;4.904;2023-02-21T14:24:21;11.40;99.90
11840;DHT22;5979;50.800;4.904;2023-02-21T14:29:44;11.40;99.90
11840;DHT22;5979;50.800;4.904;2023-02-21T14:37:58;11.10;99.90
11840;DHT22;5979;50.800;4.904;2023-02-21T14:49:27;11.00;99.90
11840;DHT22;5979;50.800;4.904;2023-02-21T14:52:07;11.00;99.90
11840;DHT22;5979;50.800;4.904;2023-02-21T15:03:07;11.00;99.90
11840;DHT22;5979;50.800;4.904;2023-02-21T15:06:03;11.00;99.90
11840;DHT22;5979;50.800;4.904;2023-02-21T15:08:43;11.00;99.90
11840;DHT22;5979;50.800;4.904;2023-02-21T15:13:47;11.00;99.90
11840;DHT22;5979;50.800;4.904;2023-02-21T15:16:14;10.90;99.90
11840;DHT22;5979;50.800;4.904;2023-02-21T15:18:55;10.80;99.90
11840;DHT22;5979;50.800;4.904;2023-02-21T15:21:22;10.90;99.90
11840;DHT22;5979;50.800;4.904;2023-02-21T15:24:05;10.90;99.90
11840;DHT22;5979;50.800;4.904;2023-02-21T15:26:37;11.00;99.90
11840;DHT22;5979;50.800;4.904;2023-02-21T15:29:08;10.90;99.90
11840;DHT22;5979;50.800;4.904;2023-02-21T15:31:43;10.80;99.90
11840;DHT22;5979;50.800;4.904;2023-02-21T15:34:24;10.80;99.90
11840;DHT22;5979;50.800;4.904;2023-02-21T15:39:32;10.60;99.90
11840;DHT22;5979;50.800;4.904;2023-02-21T15:41:58;10.60;99.90
11840;DHT22;5979;50.800;4.904;2023-02-21T15:44:50;10.50;99.90
11840;DHT22;5979;50.800;4.904;2023-02-21T15:47:19;10.50;99.90
11840;DHT22;5979;50.800;4.904;2023-02-21T15:52:47;10.40;99.90
11840;DHT22;5979;50.800;4.904;2023-02-21T15:57:45;10.30;99.90
11840;DHT22;5979;50.800;4.904;2023-02-21T16:00:38;10.20;99.90
11840;DHT22;5979;50.800;4.904;2023-02-21T16:06:17;10.10;99.90
11840;DHT22;5979;50.800;4.904;2023-02-21T16:11:50;9.90;99.90
11840;DHT22;5979;50.800;4.904;2023-02-21T16:14:47;9.70;99.90
11840;DHT22;5979;50.800;4.904;2023-02-21T16:20:00;9.50;99.90
11840;DHT22;5979;50.800;4.904;2023-02-21T16:22:33;9.40;99.90
11840;DHT22;5979;50.800;4.904;2023-02-21T16:25:21;9.40;99.90
11840;DHT22;5979;50.800;4.904;2023-02-21T16:27:53;9.40;99.90
11840;DHT22;5979;50.800;4.904;2023-02-21T16:30:24;9.30;99.90
11840;DHT22;5979;50.800;4.904;2023-02-21T16:32:51;9.30;99.90
11840;DHT22;5979;50.800;4.904;2023-02-21T16:35:22;9.20;99.90
11840;DHT22;5979;50.800;4.904;2023-02-21T16:37:50;9.10;99.90
11840;DHT22;5979;50.800;4.904;2023-02-21T16:40:24;9.10;99.90
11840;DHT22;5979;50.800;4.904;2023-02-21T16:42:51;9.00;99.90
11840;DHT22;5979;50.800;4.904;2023-02-21T16:45:17;9.00;99.90
11840;DHT22;5979;50.800;4.904;2023-02-21T16:47:43;8.90;99.90
11840;DHT22;5979;50.800;4.904;2023-02-21T16:50:20;8.90;99.90
11840;DHT22;5979;50.800;4.904;2023-02-21T16:52:46;8.80;99.90
11840;DHT22;5979;50.800;4.904;2023-02-21T16:55:14;8.70;99.90
11840;DHT22;5979;50.800;4.904;2023-02-21T16:57:41;8.60;99.90
11840;DHT22;5979;50.800;4.904;2023-02-21T17:00:07;8.60;99.90
11840;DHT22;5979;50.800;4.904;2023-02-21T17:02:33;8.50;99.90
11840;DHT22;5979;50.800;4.904;2023-02-21T17:04:59;8.40;99.90
11840;DHT22;5979;50.800;4.904;2023-02-21T17:07:24;8.30;99.90
11840;DHT22;5979;50.800;4.904;2023-02-21T17:09:50;8.20;99.90
11840;DHT22;5979;50.800;4.904;2023-02-21T17:12:16;8.20;99.90
11840;DHT22;5979;50.800;4.904;2023-02-21T17:14:41;8.10;99.90
11840;DHT22;5979;50.800;4.904;2023-02-21T17:17:07;8.00;99.90
11840;DHT22;5979;50.800;4.904;2023-02-21T17:19:33;8.00;99.90
11840;DHT22;5979;50.800;4.904;2023-02-21T17:21:59;7.90;99.90
11840;DHT22;5979;50.800;4.904;2023-02-21T17:24:24;7.80;99.90
11840;DHT22;5979;50.800;4.904;2023-02-21T17:26:53;7.80;99.90
11840;DHT22;5979;50.800;4.904;2023-02-21T17:29:20;7.70;99.90
11840;DHT22;5979;50.800;4.904;2023-02-21T17:31:46;7.60;99.90
11840;DHT22;5979;50.800;4.904;2023-02-21T17:34:12;7.60;99.90
11840;DHT22;5979;50.800;4.904;2023-02-21T17:36:38;7.50;99.90
11840;DHT22;5979;50.800;4.904;2023-02-21T17:39:04;7.50;99.90
11840;DHT22;5979;50.800;4.904;2023-02-21T17:41:31;7.40;99.90
11840;DHT22;5979;50.800;4.904;2023-02-21T17:43:56;7.30;99.90
11840;DHT22;5979;50.800;4.904;2023-02-21T17:46:22;7.20;99.90
11840;DHT22;5979;50.800;4.904;2023-02-21T17:48:48;7.20;99.90
11840;DHT22;5979;50.800;4.904;2023-02-21T17:51:24;7.20;99.90
11840;DHT22;5979;50.800;4.904;2023-02-21T17:53:51;7.20;99.90
11840;DHT22;5979;50.800;4.904;2023-02-21T17:56:21;7.20;99.90
11840;DHT22;5979;50.800;4.904;2023-02-21T17:58:49;7.20;99.90
11840;DHT22;5979;50.800;4.904;2023-02-21T18:01:18;7.10;99.90
11840;DHT22;5979;50.800;4.904;2023-02-21T18:03:46;7.10;99.90
11840;DHT22;5979;50.800;4.904;2023-02-21T18:06:13;7.00;99.90
11840;DHT22;5979;50.800;4.904;2023-02-21T18:08:39;7.00;99.90
11840;DHT22;5979;50.800;4.904;2023-02-21T18:11:09;7.00;99.90
11840;DHT22;5979;50.800;4.904;2023-02-21T18:13:35;6.90;99.90
11840;DHT22;5979;50.800;4.904;2023-02-21T18:16:01;6.90;99.90
11840;DHT22;5979;50.800;4.904;2023-02-21T18:18:30;6.90;99.90
11840;DHT22;5979;50.800;4.904;2023-02-21T18:20:55;6.80;99.90
11840;DHT22;5979;50.800;4.904;2023-02-21T18:23:23;6.80;99.90
11840;DHT22;5979;50.800;4.904;2023-02-21T18:25:48;6.80;99.90
11840;DHT22;5979;50.800;4.904;2023-02-21T18:28:14;6.80;99.90
11840;DHT22;5979;50.800;4.904;2023-02-21T18:30:40;6.70;99.90
11840;DHT22;5979;50.800;4.904;2023-02-21T18:33:06;6.70;99.90
11840;DHT22;5979;50.800;4.904;2023-02-21T18:35:31;6.70;99.90
11840;DHT22;5979;50.800;4.904;2023-02-21T18:37:57;6.60;99.90
11840;DHT22;5979;50.800;4.904;2023-02-21T18:40:23;6.60;99.90
11840;DHT22;5979;50.800;4.904;2023-02-21T18:43:02;6.50;99.90
11840;DHT22;5979;50.800;4.904;2023-02-21T18:45:30;6.50;99.90
11840;DHT22;5979;50.800;4.904;2023-02-21T18:48:00;6.40;99.90
11840;DHT22;5979;50.800;4.904;2023-02-21T18:50:26;6.40;99.90
11840;DHT22;5979;50.800;4.904;2023-02-21T18:52:51;6.30;99.90
11840;DHT22;5979;50.800;4.904;2023-02-21T18:55:17;6.30;99.90
11840;DHT22;5979;50.800;4.904;2023-02-21T18:57:45;6.20;99.90
11840;DHT22;5979;50.800;4.904;2023-02-21T19:00:17;6.20;99.90
11840;DHT22;5979;50.800;4.904;2023-02-21T19:02:43;6.20;99.90
11840;DHT22;5979;50.800;4.904;2023-02-21T19:05:14;6.10;99.90
11840;DHT22;5979;50.800;4.904;2023-02-21T19:07:42;6.10;99.90
11840;DHT22;5979;50.800;4.904;2023-02-21T19:10:09;6.10;99.90
11840;DHT22;5979;50.800;4.904;2023-02-21T19:12:35;6.10;99.90
11840;DHT22;5979;50.800;4.904;2023-02-21T19:15:02;6.10;99.90
11840;DHT22;5979;50.800;4.904;2023-02-21T19:17:28;6.00;99.90
11840;DHT22;5979;50.800;4.904;2023-02-21T19:19:53;6.00;99.90
11840;DHT22;5979;50.800;4.904;2023-02-21T19:22:19;6.00;99.90
11840;DHT22;5979;50.800;4.904;2023-02-21T19:24:45;5.90;99.90